Time;durP1;ratioP1;P1;durP2;ratioP2;P2;SDS_P1;SDS_P2;PMS_P1;PMS_P2;Temp;Humidity;BMP_temperature;BMP_pressure;BME280_temperature;BME280_humidity;BME280_pressure;Samples;Min_cycle;Max_cycle;Signal;HPM_P1;HPM_P2
2023/02/12 00:02:08;;;;;;;13.30;7.10;;;7.20;99.90;;;;;;4871213;29;20678;-71
2023/02/12 00:04:34;;;;;;;16.07;6.10;;;7.20;99.90;;;;;;4888768;29;20703;-72
2023/02/12 00:07:00;;;;;;;8.37;5.80;;;7.20;99.90;;;;;;4893765;29;20418;-72
2023/02/12 00:09:26;;;;;;;12.87;5.53;;;7.10;99.90;;;;;;4888251;29;20961;-71
2023/02/12 00:11:51;;;;;;;11.33;6.17;;;7.10;99.90;;;;;;4881692;29;20691;-71
2023/02/12 00:14:17;;;;;;;11.40;5.83;;;7.10;99.90;;;;;;4880346;29;20344;-71
2023/02/12 00:16:43;;;;;;;9.77;5.80;;;7.10;99.90;;;;;;4893645;29;20676;-70
2023/02/12 00:19:09;;;;;;;10.87;5.37;;;7.10;99.90;;;;;;4876028;29;20489;-70
2023/02/12 00:21:34;;;;;;;13.80;6.17;;;7.00;99.90;;;;;;4873780;29;20225;-71
2023/02/12 00:24:01;;;;;;;14.80;5.83;;;7.00;99.90;;;;;;4894299;29;20198;-70
2023/02/12 00:26:27;;;;;;;11.33;4.80;;;7.00;99.90;;;;;;4891769;29;20181;-71
2023/02/12 00:28:53;;;;;;;12.00;5.40;;;7.00;99.90;;;;;;4893495;29;20416;-70
2023/02/12 00:31:28;;;;;;;16.17;5.37;;;7.00;99.90;;;;;;4889421;29;20208;-71
2023/02/12 00:33:54;;;;;;;16.10;5.20;;;7.00;99.90;;;;;;4901375;29;20450;-73
2023/02/12 00:36:22;;;;;;;13.13;5.90;;;7.00;99.90;;;;;;4888408;29;20437;-71
2023/02/12 00:38:51;;;;;;;11.83;4.63;;;7.00;99.90;;;;;;4874027;29;20469;-71
2023/02/12 00:41:17;;;;;;;9.97;4.77;;;7.00;99.90;;;;;;4877855;29;20444;-71
2023/02/12 00:43:42;;;;;;;9.03;4.87;;;7.00;99.90;;;;;;4895063;29;20463;-71
2023/02/12 00:46:08;;;;;;;18.50;6.00;;;7.00;99.90;;;;;;4893452;29;20489;-72
2023/02/12 00:48:35;;;;;;;12.30;5.53;;;7.00;99.90;;;;;;4890247;29;20188;-70
2023/02/12 00:51:01;;;;;;;11.40;4.80;;;7.10;99.90;;;;;;4893596;29;20521;-71
2023/02/12 00:53:26;;;;;;;9.23;5.43;;;7.10;99.90;;;;;;4891106;29;20421;-70
2023/02/12 00:55:52;;;;;;;13.10;5.10;;;7.00;99.90;;;;;;4881232;29;20556;-70
2023/02/12 00:58:18;;;;;;;6.67;4.47;;;7.10;99.90;;;;;;4878240;29;20642;-70
2023/02/12 01:00:44;;;;;;;9.50;4.80;;;7.00;99.90;;;;;;4889621;29;20965;-71
2023/02/12 01:03:09;;;;;;;9.33;4.93;;;7.00;99.90;;;;;;4886274;29;20206;-71
2023/02/12 01:05:35;;;;;;;7.27;4.90;;;7.00;99.90;;;;;;4886770;29;20596;-70
2023/02/12 01:08:01;;;;;;;10.60;5.70;;;7.00;99.90;;;;;;4881696;29;20220;-71
2023/02/12 01:10:27;;;;;;;13.10;6.17;;;7.00;99.90;;;;;;4875707;29;20528;-71
2023/02/12 01:12:53;;;;;;;16.03;4.50;;;7.00;99.90;;;;;;4886388;29;20992;-72
2023/02/12 01:15:19;;;;;;;13.27;5.57;;;7.00;99.90;;;;;;4890006;29;20188;-71
2023/02/12 01:17:45;;;;;;;10.60;4.87;;;7.00;99.90;;;;;;4890711;29;20445;-72
2023/02/12 01:20:16;;;;;;;11.43;5.03;;;7.00;99.90;;;;;;4889369;29;20719;-71
2023/02/12 01:22:41;;;;;;;17.87;4.90;;;7.00;99.90;;;;;;4887123;29;20504;-71
2023/02/12 01:25:08;;;;;;;8.53;3.90;;;6.90;99.90;;;;;;4895288;29;20456;-70
2023/02/12 01:27:33;;;;;;;10.13;4.50;;;7.00;99.90;;;;;;4889919;29;20174;-70
2023/02/12 01:29:59;;;;;;;10.37;4.43;;;6.90;99.90;;;;;;4882058;29;20902;-69
2023/02/12 01:32:24;;;;;;;10.37;3.50;;;6.90;99.90;;;;;;4885856;29;20177;-71
2023/02/12 01:34:50;;;;;;;14.73;4.93;;;6.90;99.90;;;;;;4888147;29;20176;-70
2023/02/12 01:37:16;;;;;;;10.30;4.10;;;6.90;99.90;;;;;;4895100;29;20751;-71
2023/02/12 01:39:41;;;;;;;17.53;5.40;;;6.90;99.90;;;;;;4879759;29;20647;-71
2023/02/12 01:42:12;;;;;;;13.73;4.97;;;6.90;99.90;;;;;;4887241;29;20242;-72
2023/02/12 01:44:43;;;;;;;7.10;4.30;;;6.90;99.90;;;;;;4896843;29;20200;-71
2023/02/12 01:47:27;;;;;;;11.20;3.57;;;6.90;99.90;;;;;;4876767;29;20959;-70
2023/02/12 01:49:53;;;;;;;11.63;4.73;;;6.90;99.90;;;;;;4881143;29;20427;-71
2023/02/12 01:52:30;;;;;;;8.90;4.50;;;6.90;99.90;;;;;;4889754;29;20432;-71
2023/02/12 01:55:01;;;;;;;13.50;6.03;;;7.00;99.90;;;;;;4891106;29;20682;-71
2023/02/12 01:57:28;;;;;;;11.30;4.43;;;6.90;99.90;;;;;;4885870;29;20958;-71
2023/02/12 01:59:57;;;;;;;14.37;4.63;;;6.90;99.90;;;;;;4890096;29;20423;-71
2023/02/12 02:02:23;;;;;;;9.80;4.50;;;6.90;99.90;;;;;;4886919;29;20425;-70
2023/02/12 02:05:01;;;;;;;8.07;4.50;;;6.90;99.90;;;;;;4888716;29;20538;-71
2023/02/12 02:07:28;;;;;;;9.73;4.20;;;7.00;99.90;;;;;;4883760;29;20417;-70
2023/02/12 02:09:54;;;;;;;9.00;5.17;;;6.90;99.90;;;;;;4886790;29;20912;-71
2023/02/12 02:15:05;;;;;;;22.27;4.93;;;6.90;99.90;;;;;;4873205;29;20432;-70
2023/02/12 02:18:01;;;;;;;12.43;4.30;;;6.90;99.90;;;;;;4887517;29;20416;-70
2023/02/12 02:20:32;;;;;;;10.60;3.70;;;6.90;99.90;;;;;;4890255;29;20448;-71
2023/02/12 02:23:07;;;;;;;11.70;4.50;;;6.90;99.90;;;;;;4887052;29;20424;-71
2023/02/12 02:25:48;;;;;;;12.90;4.60;;;6.90;99.90;;;;;;4886302;29;20549;-70
2023/02/12 02:28:43;;;;;;;10.73;4.97;;;6.90;99.90;;;;;;4883005;29;20973;-70
2023/02/12 02:31:20;;;;;;;15.67;5.40;;;6.90;99.90;;;;;;4886049;29;20855;-71
2023/02/12 02:34:18;;;;;;;15.00;4.17;;;6.90;99.90;;;;;;4870088;29;20544;-71
2023/02/12 02:37:04;;;;;;;7.93;3.80;;;6.90;99.90;;;;;;4884155;29;20688;-71
2023/02/12 02:39:39;;;;;;;11.23;4.20;;;6.90;99.90;;;;;;4887597;29;20428;-71
2023/02/12 02:42:30;;;;;;;9.13;3.40;;;6.90;99.90;;;;;;4884834;29;20437;-70
2023/02/12 02:45:27;;;;;;;7.80;4.87;;;6.90;99.90;;;;;;4882015;29;20978;-72
2023/02/12 02:47:58;;;;;;;10.63;4.40;;;6.90;99.90;;;;;;4867454;29;20441;-70
2023/02/12 02:50:27;;;;;;;4.53;3.00;;;6.90;99.90;;;;;;4877430;29;20476;-70
2023/02/12 02:53:03;;;;;;;8.07;3.10;;;6.80;99.90;;;;;;4888317;29;20773;-70
2023/02/12 02:55:35;;;;;;;10.20;4.00;;;6.80;99.90;;;;;;4886358;29;20451;-70
2023/02/12 02:58:15;;;;;;;22.23;5.20;;;6.90;99.90;;;;;;4900832;29;20427;-70
2023/02/12 03:00:49;;;;;;;17.23;4.07;;;6.80;99.90;;;;;;4901503;29;20444;-70
2023/02/12 03:03:26;;;;;;;15.70;4.53;;;6.90;99.90;;;;;;4898825;29;20415;-71
2023/02/12 03:05:55;;;;;;;19.27;4.93;;;6.90;99.90;;;;;;4877725;29;20911;-70
2023/02/12 03:08:28;;;;;;;6.83;3.93;;;6.80;99.90;;;;;;4877425;29;20850;-70
2023/02/12 03:11:10;;;;;;;7.73;3.13;;;6.90;99.90;;;;;;4886823;29;20969;-70
2023/02/12 03:13:46;;;;;;;9.90;4.37;;;6.90;99.90;;;;;;4888628;29;20450;-71
2023/02/12 03:16:25;;;;;;;6.90;3.67;;;6.90;99.90;;;;;;4887328;29;20418;-71
2023/02/12 03:18:53;;;;;;;12.60;4.10;;;7.00;99.90;;;;;;4886552;29;20496;-70
2023/02/12 03:21:26;;;;;;;13.60;4.23;;;7.00;99.90;;;;;;4897017;29;20440;-70
2023/02/12 03:24:06;;;;;;;15.73;5.60;;;6.90;99.90;;;;;;4881359;29;20453;-70
2023/02/12 03:26:50;;;;;;;12.07;4.70;;;6.90;99.90;;;;;;4886373;29;20423;-70
2023/02/12 03:29:15;;;;;;;15.03;3.90;;;7.00;99.90;;;;;;4900767;29;20423;-71
2023/02/12 03:32:01;;;;;;;8.50;4.07;;;6.90;99.90;;;;;;4889724;29;20456;-71
2023/02/12 03:34:43;;;;;;;11.47;4.03;;;6.90;99.90;;;;;;4859220;29;20210;-71
2023/02/12 03:37:19;;;;;;;15.73;4.47;;;6.90;99.90;;;;;;4894183;29;20420;-71
2023/02/12 03:40:09;;;;;;;7.53;5.30;;;6.90;99.90;;;;;;4887063;29;20428;-71
2023/02/12 03:42:47;;;;;;;13.83;4.17;;;6.80;99.90;;;;;;4896508;29;20417;-71
2023/02/12 03:45:35;;;;;;;12.63;4.13;;;6.90;99.90;;;;;;4885413;29;20497;-71
2023/02/12 03:48:23;;;;;;;11.83;3.60;;;6.90;99.90;;;;;;4884614;29;20953;-70
2023/02/12 03:51:00;;;;;;;10.93;4.33;;;6.90;99.90;;;;;;4883766;29;20472;-71
2023/02/12 03:53:28;;;;;;;16.70;4.57;;;6.90;99.90;;;;;;4895287;29;20440;-70
2023/02/12 03:56:02;;;;;;;14.37;4.63;;;6.90;99.90;;;;;;4894974;29;20420;-70
2023/02/12 03:58:31;;;;;;;10.83;4.40;;;6.80;99.90;;;;;;4873654;29;20568;-71
2023/02/12 04:00:58;;;;;;;11.67;5.10;;;6.80;99.90;;;;;;4887830;29;20480;-71
2023/02/12 04:03:24;;;;;;;9.87;4.70;;;6.80;99.90;;;;;;4890612;29;20942;-71
2023/02/12 04:05:50;;;;;;;11.23;4.97;;;6.80;99.90;;;;;;4898817;29;20477;-71
2023/02/12 04:08:15;;;;;;;10.63;4.30;;;6.80;99.90;;;;;;4893953;29;20310;-71
2023/02/12 04:10:50;;;;;;;11.63;3.57;;;6.90;99.90;;;;;;4889316;29;20288;-70
2023/02/12 04:13:38;;;;;;;16.93;4.83;;;6.80;99.90;;;;;;4899891;29;20647;-70
2023/02/12 04:16:12;;;;;;;11.23;4.33;;;6.90;99.90;;;;;;4878242;29;20465;-70
2023/02/12 04:18:42;;;;;;;14.83;4.33;;;6.90;99.90;;;;;;4887387;29;20423;-70
2023/02/12 04:21:22;;;;;;;14.73;5.00;;;6.80;99.90;;;;;;4869941;29;20466;-70
2023/02/12 04:24:11;;;;;;;14.60;6.20;;;6.80;99.90;;;;;;4892181;29;20478;-70
2023/02/12 04:26:47;;;;;;;9.90;5.17;;;6.80;99.90;;;;;;4867090;29;20422;-70
2023/02/12 04:29:38;;;;;;;13.20;4.67;;;6.80;99.90;;;;;;4896837;29;20423;-70
2023/02/12 04:32:28;;;;;;;12.23;5.93;;;6.90;99.90;;;;;;4878111;29;20445;-71
2023/02/12 04:35:01;;;;;;;16.10;5.13;;;6.80;99.90;;;;;;4881503;29;20433;-70
2023/02/12 04:37:38;;;;;;;7.93;3.70;;;6.80;99.90;;;;;;4890397;29;20420;-70
2023/02/12 04:40:08;;;;;;;11.40;4.93;;;6.80;99.90;;;;;;4874577;29;20434;-70
2023/02/12 04:42:53;;;;;;;12.00;3.27;;;6.80;99.90;;;;;;4889484;29;20417;-70
2023/02/12 04:45:28;;;;;;;14.67;4.40;;;6.80;99.90;;;;;;4894412;29;20475;-71
2023/02/12 04:47:53;;;;;;;15.90;4.37;;;6.80;99.90;;;;;;4881729;29;20429;-70
2023/02/12 04:50:19;;;;;;;12.90;4.33;;;6.80;99.90;;;;;;4891884;29;21143;-70
2023/02/12 04:52:46;;;;;;;18.93;5.33;;;6.80;99.90;;;;;;4910989;23;20544;-67
2023/02/12 04:55:11;;;;;;;9.57;4.20;;;6.80;99.90;;;;;;4891922;29;20431;-63
2023/02/12 04:57:37;;;;;;;9.93;4.37;;;6.80;99.90;;;;;;4883251;29;20438;-64
2023/02/12 05:00:04;;;;;;;25.10;4.77;;;6.80;99.90;;;;;;4890085;29;20244;-64
2023/02/12 05:02:32;;;;;;;6.03;3.97;;;6.80;99.90;;;;;;4894113;29;20204;-65
2023/02/12 05:04:57;;;;;;;18.80;5.13;;;6.80;99.90;;;;;;4888160;29;20959;-65
2023/02/12 05:07:23;;;;;;;23.43;4.80;;;6.80;99.90;;;;;;4887811;29;20424;-66
2023/02/12 05:09:48;;;;;;;18.93;4.80;;;6.80;99.90;;;;;;4888427;29;20180;-65
2023/02/12 05:12:14;;;;;;;6.30;3.70;;;6.90;99.90;;;;;;4890798;29;20241;-65
2023/02/12 05:14:39;;;;;;;9.47;3.90;;;6.90;99.90;;;;;;4874341;29;20452;-65
2023/02/12 05:17:05;;;;;;;9.43;4.30;;;6.90;99.90;;;;;;4867400;29;20275;-65
2023/02/12 05:19:31;;;;;;;15.27;3.90;;;6.90;99.90;;;;;;4885501;29;20191;-65
2023/02/12 05:21:56;;;;;;;11.67;4.23;;;6.90;99.90;;;;;;4888544;29;20176;-65
2023/02/12 05:24:22;;;;;;;5.77;3.77;;;6.90;99.90;;;;;;4887006;29;20486;-65
2023/02/12 05:26:49;;;;;;;8.60;3.80;;;6.80;99.90;;;;;;4890204;29;20173;-64
2023/02/12 05:29:14;;;;;;;12.53;5.60;;;6.80;99.90;;;;;;4889640;29;20184;-65
2023/02/12 05:31:40;;;;;;;6.60;3.33;;;6.80;99.90;;;;;;4886992;29;20422;-65
2023/02/12 05:34:08;;;;;;;13.60;4.50;;;6.80;99.90;;;;;;4889565;29;20283;-65
2023/02/12 05:36:34;;;;;;;9.13;4.43;;;6.80;99.90;;;;;;4887127;29;20531;-65
2023/02/12 05:39:00;;;;;;;9.10;3.83;;;6.80;99.90;;;;;;4883606;29;20451;-65
2023/02/12 05:41:26;;;;;;;8.83;4.33;;;6.80;99.90;;;;;;4887187;29;20185;-65
2023/02/12 05:43:52;;;;;;;13.90;4.57;;;6.80;99.90;;;;;;4888014;29;20694;-65
2023/02/12 05:46:19;;;;;;;10.10;4.47;;;6.70;99.90;;;;;;4893284;29;20459;-65
2023/02/12 05:48:45;;;;;;;11.70;4.73;;;6.70;99.90;;;;;;4884069;29;20505;-65
2023/02/12 05:51:16;;;;;;;10.13;4.60;;;6.70;99.90;;;;;;4889662;29;20476;-65
2023/02/12 05:53:42;;;;;;;12.33;4.07;;;6.70;99.90;;;;;;4877973;29;20479;-65
2023/02/12 05:56:11;;;;;;;21.00;4.77;;;6.70;99.90;;;;;;4885868;29;20453;-65
2023/02/12 05:58:37;;;;;;;11.43;3.73;;;6.70;99.90;;;;;;4880212;29;20182;-65
2023/02/12 06:01:07;;;;;;;16.77;5.23;;;6.60;99.90;;;;;;4876779;29;20446;-65
2023/02/12 06:03:33;;;;;;;13.47;5.10;;;6.60;99.90;;;;;;4875571;29;20524;-65
2023/02/12 06:05:59;;;;;;;13.10;4.90;;;6.60;99.90;;;;;;4888964;29;20806;-65
2023/02/12 06:08:24;;;;;;;13.93;5.87;;;6.60;99.90;;;;;;4892407;29;20199;-65
2023/02/12 06:10:50;;;;;;;11.13;5.80;;;6.60;99.90;;;;;;4886422;29;20550;-65
2023/02/12 06:13:15;;;;;;;14.40;4.50;;;6.60;99.90;;;;;;4883877;29;20259;-66
2023/02/12 06:15:41;;;;;;;13.67;4.67;;;6.60;99.90;;;;;;4889985;29;20429;-66
2023/02/12 06:18:06;;;;;;;14.70;5.00;;;6.60;99.90;;;;;;4868875;29;20185;-65
2023/02/12 06:20:32;;;;;;;12.97;5.13;;;6.50;99.90;;;;;;4887629;29;20647;-65
2023/02/12 06:22:57;;;;;;;15.70;6.40;;;6.60;99.90;;;;;;4886938;29;20204;-65
2023/02/12 06:25:23;;;;;;;11.77;5.13;;;6.60;99.90;;;;;;4891196;29;20263;-66
2023/02/12 06:27:49;;;;;;;12.50;4.97;;;6.60;99.90;;;;;;4884299;29;20252;-65
2023/02/12 06:30:14;;;;;;;27.07;5.07;;;6.60;99.90;;;;;;4887469;29;20181;-65
2023/02/12 06:32:40;;;;;;;9.53;3.73;;;6.60;99.90;;;;;;4889858;29;20301;-65
2023/02/12 06:35:06;;;;;;;13.13;5.00;;;6.60;99.90;;;;;;4874126;29;20942;-65
2023/02/12 06:37:35;;;;;;;10.77;4.30;;;6.60;99.90;;;;;;4883404;29;20371;-65
2023/02/12 06:40:01;;;;;;;13.57;5.00;;;6.60;99.90;;;;;;4888496;29;20185;-65
2023/02/12 06:42:27;;;;;;;7.80;4.63;;;6.60;99.90;;;;;;4890974;29;20515;-65
2023/02/12 06:44:52;;;;;;;16.90;5.30;;;6.60;99.90;;;;;;4883716;29;20281;-64
2023/02/12 06:47:18;;;;;;;13.37;4.53;;;6.60;99.90;;;;;;4886393;29;20660;-65
2023/02/12 06:49:43;;;;;;;10.83;4.80;;;6.60;99.90;;;;;;4888569;29;20189;-64
2023/02/12 06:52:09;;;;;;;12.03;4.90;;;6.60;99.90;;;;;;4875297;29;20208;-65
2023/02/12 06:54:34;;;;;;;15.03;4.50;;;6.60;99.90;;;;;;4876482;29;20189;-66
2023/02/12 06:57:00;;;;;;;8.27;3.90;;;6.60;99.90;;;;;;4882752;29;20260;-65
2023/02/12 06:59:26;;;;;;;11.90;5.87;;;6.60;99.90;;;;;;4891203;29;20224;-66
2023/02/12 07:01:51;;;;;;;11.03;3.70;;;6.60;99.90;;;;;;4885314;29;20216;-65
2023/02/12 07:04:17;;;;;;;10.60;4.17;;;6.70;99.90;;;;;;4885380;29;20209;-66
2023/02/12 07:06:42;;;;;;;14.20;3.70;;;6.70;99.90;;;;;;4886048;29;20309;-66
2023/02/12 07:09:08;;;;;;;12.33;4.60;;;6.70;99.90;;;;;;4884464;29;20696;-65
2023/02/12 07:11:35;;;;;;;11.33;4.07;;;6.70;99.90;;;;;;4875982;29;20190;-65
2023/02/12 07:14:00;;;;;;;13.43;4.43;;;6.80;99.90;;;;;;4872136;29;20218;-65
2023/02/12 07:16:26;;;;;;;10.90;4.00;;;6.80;99.90;;;;;;4883721;29;20513;-69
2023/02/12 07:18:52;;;;;;;9.93;4.30;;;6.70;99.90;;;;;;4882853;29;20187;-65
2023/02/12 07:21:18;;;;;;;6.30;4.00;;;6.80;99.90;;;;;;4870472;29;20187;-65
2023/02/12 07:23:48;;;;;;;14.13;5.00;;;6.90;99.90;;;;;;4889516;29;20216;-66
2023/02/12 07:26:15;;;;;;;9.60;3.50;;;6.90;99.90;;;;;;4866661;29;20449;-64
2023/02/12 07:28:41;;;;;;;18.03;5.13;;;6.80;99.90;;;;;;4875132;29;20596;-65
2023/02/12 07:31:15;;;;;;;6.83;4.50;;;6.80;99.90;;;;;;4891712;29;20508;-68
2023/02/12 07:33:41;;;;;;;12.63;4.90;;;6.90;99.90;;;;;;4885812;29;20443;-65
2023/02/12 07:36:10;;;;;;;7.97;4.77;;;6.90;99.90;;;;;;4891699;29;20440;-66
2023/02/12 07:38:38;;;;;;;7.97;4.63;;;6.90;99.90;;;;;;4889481;29;20823;-66
2023/02/12 07:41:12;;;;;;;12.90;4.73;;;7.00;99.90;;;;;;4889087;29;20432;-66
2023/02/12 07:43:39;;;;;;;6.83;4.03;;;7.00;99.90;;;;;;4888883;29;20437;-66
2023/02/12 07:46:10;;;;;;;7.77;4.27;;;7.10;99.90;;;;;;4885448;29;20887;-65
2023/02/12 07:48:35;;;;;;;8.83;4.43;;;7.00;99.90;;;;;;4893482;29;20994;-65
2023/02/12 07:51:09;;;;;;;22.63;4.87;;;7.10;99.90;;;;;;4886659;29;20539;-66
2023/02/12 07:53:35;;;;;;;14.77;4.70;;;7.20;99.90;;;;;;4888576;29;20213;-66
2023/02/12 07:56:06;;;;;;;10.70;3.77;;;7.20;99.90;;;;;;4889559;29;20885;-65
2023/02/12 07:58:31;;;;;;;17.77;3.97;;;7.20;99.90;;;;;;4889722;29;20428;-65
2023/02/12 08:00:57;;;;;;;9.07;3.63;;;7.20;99.90;;;;;;4886371;29;20418;-65
2023/02/12 08:03:22;;;;;;;11.30;4.07;;;7.20;99.90;;;;;;4892459;29;20200;-65
2023/02/12 08:05:48;;;;;;;11.80;4.70;;;7.30;99.90;;;;;;4885953;29;20223;-65
2023/02/12 08:08:13;;;;;;;11.67;3.90;;;7.40;99.90;;;;;;4896646;29;20192;-65
2023/02/12 08:10:39;;;;;;;25.23;3.53;;;7.40;99.90;;;;;;4886470;29;20187;-66
2023/02/12 08:13:04;;;;;;;10.30;3.67;;;7.40;99.90;;;;;;4896296;29;20382;-66
2023/02/12 08:15:30;;;;;;;9.27;3.50;;;7.30;99.90;;;;;;4893573;29;20188;-65
2023/02/12 08:17:56;;;;;;;12.00;3.57;;;7.30;99.90;;;;;;4885405;29;20260;-65
2023/02/12 08:20:21;;;;;;;18.60;4.50;;;7.30;99.90;;;;;;4881590;29;20517;-66
2023/02/12 08:22:47;;;;;;;11.03;3.57;;;7.30;99.90;;;;;;4885538;29;20200;-65
2023/02/12 08:25:12;;;;;;;8.17;3.97;;;7.40;99.90;;;;;;4890483;29;20204;-66
2023/02/12 08:27:40;;;;;;;4.90;3.30;;;7.50;99.90;;;;;;4893586;29;20261;-65
2023/02/12 08:30:07;;;;;;;12.10;4.03;;;7.50;99.90;;;;;;4890348;29;20200;-66
2023/02/12 08:32:32;;;;;;;15.17;3.73;;;7.60;99.90;;;;;;4886772;29;20448;-66
2023/02/12 08:34:58;;;;;;;11.90;5.23;;;7.70;99.90;;;;;;4889762;29;20798;-66
2023/02/12 08:37:23;;;;;;;8.87;3.70;;;7.80;99.90;;;;;;4893486;29;20387;-65
2023/02/12 08:39:49;;;;;;;11.63;3.40;;;7.90;99.90;;;;;;4884952;29;20192;-66
2023/02/12 08:42:14;;;;;;;8.67;3.40;;;7.70;99.90;;;;;;4885719;29;20666;-66
2023/02/12 08:44:41;;;;;;;15.33;3.80;;;7.80;99.90;;;;;;4888163;29;20579;-67
2023/02/12 08:47:08;;;;;;;13.07;4.17;;;7.80;99.90;;;;;;4888277;29;20682;-65
2023/02/12 08:49:34;;;;;;;15.97;3.90;;;7.90;99.90;;;;;;4895748;29;20476;-67
2023/02/12 08:52:01;;;;;;;11.60;4.07;;;7.70;99.90;;;;;;4895569;29;20416;-65
2023/02/12 08:54:28;;;;;;;10.70;3.80;;;7.70;99.90;;;;;;4887495;29;20565;-65
2023/02/12 08:56:55;;;;;;;6.70;3.80;;;7.90;99.90;;;;;;4887941;29;20432;-65
2023/02/12 08:59:21;;;;;;;9.63;3.60;;;7.90;99.90;;;;;;4887627;29;20417;-65
2023/02/12 09:01:50;;;;;;;7.80;4.53;;;7.90;99.90;;;;;;4889113;29;20421;-66
2023/02/12 09:04:20;;;;;;;7.50;3.80;;;8.00;99.90;;;;;;4886494;29;20597;-66
2023/02/12 09:06:46;;;;;;;9.70;4.00;;;7.90;99.90;;;;;;4887940;29;20430;-66
2023/02/12 09:09:12;;;;;;;12.33;3.90;;;7.90;99.90;;;;;;4894311;29;20418;-66
2023/02/12 09:11:38;;;;;;;11.63;3.70;;;7.90;99.90;;;;;;4887425;29;20265;-65
2023/02/12 09:14:06;;;;;;;10.53;4.90;;;7.80;99.90;;;;;;4887779;29;20527;-67
2023/02/12 09:16:35;;;;;;;9.07;4.60;;;7.80;99.90;;;;;;4888269;29;20185;-65
2023/02/12 09:19:02;;;;;;;14.00;5.70;;;7.70;99.90;;;;;;4893801;29;20828;-65
2023/02/12 09:21:28;;;;;;;12.07;4.03;;;7.80;99.90;;;;;;4887641;29;20433;-65
2023/02/12 09:23:54;;;;;;;10.97;5.17;;;7.90;99.90;;;;;;4887592;29;20461;-65
2023/02/12 09:26:21;;;;;;;8.20;3.27;;;8.00;99.90;;;;;;4887391;29;20194;-65
2023/02/12 09:28:49;;;;;;;13.20;4.73;;;7.90;99.90;;;;;;4887424;29;20413;-66
2023/02/12 09:31:19;;;;;;;11.50;3.43;;;8.20;99.90;;;;;;4886584;29;20417;-66
2023/02/12 09:33:45;;;;;;;6.53;4.00;;;8.30;99.90;;;;;;4887508;29;20805;-66
2023/02/12 09:36:14;;;;;;;6.90;3.13;;;8.20;99.90;;;;;;4887442;29;20420;-66
2023/02/12 09:38:40;;;;;;;12.10;5.00;;;8.10;99.90;;;;;;4882212;29;20418;-66
2023/02/12 09:41:17;;;;;;;14.33;4.60;;;8.10;99.90;;;;;;4887255;29;20919;-66
2023/02/12 09:43:46;;;;;;;6.50;3.80;;;8.20;99.90;;;;;;4875844;29;20437;-66
2023/02/12 09:46:20;;;;;;;12.13;5.20;;;8.10;99.90;;;;;;4880081;29;20440;-66
2023/02/12 09:49:08;;;;;;;13.80;4.00;;;8.10;99.90;;;;;;4880287;29;20418;-66
2023/02/12 09:51:35;;;;;;;9.60;4.17;;;8.30;99.90;;;;;;4885782;29;20992;-66
2023/02/12 09:54:29;;;;;;;9.63;4.27;;;8.30;99.90;;;;;;4889210;29;20463;-66
2023/02/12 09:56:58;;;;;;;9.93;4.00;;;8.50;99.90;;;;;;4883972;29;20431;-66
2023/02/12 09:59:36;;;;;;;10.00;4.90;;;8.40;99.90;;;;;;4889607;29;20522;-66
2023/02/12 10:02:05;;;;;;;14.80;4.50;;;8.30;99.90;;;;;;4887051;29;20486;-66
2023/02/12 10:04:31;;;;;;;10.07;3.50;;;8.30;99.90;;;;;;4885790;29;21075;-66
2023/02/12 10:07:08;;;;;;;10.67;4.20;;;8.30;99.90;;;;;;4892201;29;20422;-66
2023/02/12 10:09:56;;;;;;;17.87;4.80;;;8.40;99.90;;;;;;4889139;29;20516;-66
2023/02/12 10:12:27;;;;;;;9.53;3.90;;;8.50;99.90;;;;;;4886534;29;20512;-66
2023/02/12 10:15:00;;;;;;;15.93;5.37;;;8.70;99.90;;;;;;4877126;29;20456;-66
2023/02/12 10:17:41;;;;;;;12.43;4.37;;;8.70;99.90;;;;;;4885558;29;20424;-66
2023/02/12 10:20:35;;;;;;;8.97;4.30;;;8.80;99.90;;;;;;4888671;29;20939;-66
2023/02/12 10:23:01;;;;;;;7.47;3.93;;;9.10;99.90;;;;;;4884208;29;20525;-66
2023/02/12 10:25:32;;;;;;;14.47;5.03;;;8.90;99.90;;;;;;4891202;29;20555;-66
2023/02/12 10:28:01;;;;;;;15.17;5.37;;;8.80;99.90;;;;;;4883711;29;20187;-65
2023/02/12 10:30:36;;;;;;;9.83;4.57;;;8.80;99.90;;;;;;4891713;29;20416;-66
2023/02/12 10:33:11;;;;;;;12.60;5.70;;;8.80;99.90;;;;;;4889134;29;20498;-66
2023/02/12 10:35:47;;;;;;;10.20;4.60;;;8.70;99.90;;;;;;4885570;29;20752;-66
2023/02/12 10:38:25;;;;;;;10.93;4.87;;;8.70;99.90;;;;;;4886434;29;20936;-66
2023/02/12 10:40:53;;;;;;;17.50;6.40;;;8.80;99.90;;;;;;4874971;29;20461;-70
2023/02/12 10:43:19;;;;;;;11.60;5.47;;;8.90;99.90;;;;;;4888816;29;20449;-66
2023/02/12 10:45:45;;;;;;;15.83;5.40;;;8.90;99.90;;;;;;4886258;29;20476;-68
2023/02/12 10:48:21;;;;;;;7.60;4.97;;;8.90;99.90;;;;;;4885745;29;20178;-66
2023/02/12 10:51:07;;;;;;;6.63;5.53;;;8.50;99.90;;;;;;4886246;29;20187;-66
2023/02/12 10:53:42;;;;;;;7.93;4.93;;;8.40;99.90;;;;;;4886110;29;20935;-66
2023/02/12 10:56:10;;;;;;;15.53;6.80;;;8.40;99.90;;;;;;4889460;29;20516;-66
2023/02/12 10:58:49;;;;;;;9.23;6.33;;;8.20;99.90;;;;;;4884100;29;20459;-66
2023/02/12 11:01:27;;;;;;;10.10;5.27;;;8.20;99.90;;;;;;4882323;29;20448;-66
2023/02/12 11:03:55;;;;;;;10.70;6.60;;;8.10;99.90;;;;;;4889157;29;20466;-66
2023/02/12 11:06:24;;;;;;;10.13;5.20;;;8.20;99.90;;;;;;4872938;29;20424;-66
2023/02/12 11:08:51;;;;;;;12.30;6.00;;;8.40;99.90;;;;;;4893380;29;20583;-66
2023/02/12 11:11:29;;;;;;;14.40;6.00;;;8.50;99.90;;;;;;4887293;29;20928;-66
2023/02/12 11:14:17;;;;;;;7.53;6.23;;;8.40;99.90;;;;;;4886992;29;20474;-66
2023/02/12 11:16:54;;;;;;;13.80;5.93;;;8.30;99.90;;;;;;4885947;29;20415;-66
2023/02/12 11:19:29;;;;;;;8.63;4.73;;;8.30;99.90;;;;;;4886766;29;20442;-65
2023/02/12 11:22:13;;;;;;;10.20;6.10;;;8.40;99.90;;;;;;4912432;23;20490;-71
2023/02/12 11:24:39;;;;;;;13.20;6.20;;;8.60;99.90;;;;;;4898175;29;20464;-73
2023/02/12 11:27:25;;;;;;;13.20;4.43;;;8.50;99.90;;;;;;4897599;29;20424;-73
2023/02/12 11:30:09;;;;;;;9.90;5.93;;;8.20;99.90;;;;;;4896914;29;20255;-74
2023/02/12 11:32:36;;;;;;;8.40;5.70;;;8.10;99.90;;;;;;4881234;29;20418;-72
2023/02/12 11:35:17;;;;;;;9.97;5.27;;;8.20;99.90;;;;;;4880831;29;20414;-73
2023/02/12 11:37:44;;;;;;;11.23;6.00;;;8.40;99.90;;;;;;4881645;29;20921;-71
2023/02/12 11:40:20;;;;;;;11.27;5.63;;;8.60;99.90;;;;;;4880953;29;20425;-72
2023/02/12 11:42:57;;;;;;;12.00;6.30;;;8.50;99.90;;;;;;4874994;29;20410;-73
2023/02/12 11:45:40;;;;;;;9.57;5.37;;;8.30;99.90;;;;;;4880677;29;20471;-72
2023/02/12 11:48:19;;;;;;;5.40;4.50;;;8.50;99.90;;;;;;4880949;29;20558;-74
2023/02/12 11:50:51;;;;;;;11.03;5.50;;;8.50;99.90;;;;;;4879537;29;20438;-73
2023/02/12 11:53:24;;;;;;;8.33;4.00;;;8.50;99.90;;;;;;4877149;29;20424;-71
2023/02/12 11:55:59;;;;;;;9.30;4.60;;;8.60;99.90;;;;;;4873451;29;20786;-73
2023/02/12 11:58:26;;;;;;;8.37;4.17;;;8.60;99.90;;;;;;4875855;29;20417;-72
2023/02/12 12:01:20;;;;;;;7.47;3.73;;;8.50;99.90;;;;;;4878310;29;20451;-73
2023/02/12 12:04:10;;;;;;;9.63;3.50;;;8.50;99.90;;;;;;4880584;29;20446;-72
2023/02/12 12:06:39;;;;;;;10.40;4.73;;;8.60;99.90;;;;;;4880599;29;20422;-72
2023/02/12 12:09:33;;;;;;;8.23;4.97;;;8.60;99.90;;;;;;4880644;29;20417;-73
2023/02/12 12:12:14;;;;;;;5.60;3.77;;;8.70;99.90;;;;;;4881512;29;20931;-72
2023/02/12 12:21:10;;;;;;;8.57;4.43;;;8.70;99.90;;;;;;4875110;29;20558;-71
2023/02/12 12:23:39;;;;;;;12.50;5.30;;;9.00;99.90;;;;;;4875745;29;20841;-71
2023/02/12 12:26:17;;;;;;;8.10;4.90;;;8.90;99.90;;;;;;4880162;29;20422;-70
2023/02/12 12:29:37;;;;;;;8.57;3.80;;;8.80;99.90;;;;;;4877026;29;20923;-75
2023/02/12 12:32:04;;;;;;;8.33;4.60;;;8.80;99.90;;;;;;4860692;29;20430;-75
2023/02/12 12:34:30;;;;;;;7.07;4.87;;;8.80;99.90;;;;;;4871181;29;20791;-73
2023/02/12 12:37:27;;;;;;;8.20;5.33;;;9.00;99.90;;;;;;4880728;29;20422;-72
2023/02/12 12:40:06;;;;;;;5.80;3.87;;;8.90;99.90;;;;;;4874045;29;20216;-72
2023/02/12 12:43:02;;;;;;;7.87;3.90;;;9.10;99.90;;;;;;4877913;29;20972;-71
2023/02/12 12:45:27;;;;;;;9.27;5.27;;;9.20;99.90;;;;;;4873385;29;20876;-74
2023/02/12 12:48:14;;;;;;;6.97;4.07;;;9.20;99.90;;;;;;4877765;29;20412;-73
2023/02/12 12:50:58;;;;;;;12.93;5.10;;;9.20;99.90;;;;;;4877248;29;20254;-72
2023/02/12 12:53:45;;;;;;;5.73;3.90;;;9.10;99.90;;;;;;4876135;29;20412;-72
2023/02/12 12:56:22;;;;;;;7.17;3.93;;;8.80;99.90;;;;;;4876679;29;20416;-72
2023/02/12 12:59:12;;;;;;;10.70;4.90;;;9.10;99.90;;;;;;4872703;29;20409;-71
2023/02/12 13:01:49;;;;;;;16.60;9.77;;;9.20;99.90;;;;;;4874977;29;20832;-71
2023/02/12 13:04:31;;;;;;;12.10;4.87;;;9.60;99.90;;;;;;4879864;29;20457;-71
2023/02/12 13:07:26;;;;;;;8.00;4.00;;;9.40;99.90;;;;;;4881533;29;20412;-71
2023/02/12 13:09:57;;;;;;;6.57;3.70;;;9.40;99.90;;;;;;4875786;29;20417;-72
2023/02/12 13:12:52;;;;;;;12.13;4.70;;;9.70;99.90;;;;;;4879923;29;20486;-72
2023/02/12 13:15:20;;;;;;;7.80;5.00;;;9.50;99.90;;;;;;4885285;29;20404;-73
2023/02/12 13:18:16;;;;;;;5.67;3.77;;;9.50;99.90;;;;;;4872453;29;20413;-73
2023/02/12 13:21:03;;;;;;;7.10;4.50;;;9.50;99.90;;;;;;4876162;29;20472;-73
2023/02/12 13:23:37;;;;;;;9.70;4.73;;;9.50;99.90;;;;;;4881055;29;20412;-71